Time;durP1;ratioP1;P1;durP2;ratioP2;P2;SDS_P1;SDS_P2;PMS_P1;PMS_P2;Temp;Humidity;BMP_temperature;BMP_pressure;BME280_temperature;BME280_humidity;BME280_pressure;Samples;Min_cycle;Max_cycle;Signal;HPM_P1;HPM_P2
2020/12/25 00:01:20;;;;;;;1.45;0.98;;;21.30;52.10;;;;;;5066323;28;20351;-69
2020/12/25 00:03:46;;;;;;;2.15;1.10;;;21.30;52.10;;;;;;5091475;28;20516;-68
2020/12/25 00:06:12;;;;;;;0.90;0.70;;;21.30;52.20;;;;;;5089865;28;20190;-69
2020/12/25 00:08:38;;;;;;;1.60;0.90;;;21.30;52.20;;;;;;5092310;28;20108;-67
2020/12/25 00:11:03;;;;;;;1.10;0.82;;;21.30;52.20;;;;;;5065311;28;20043;-66
2020/12/25 00:13:29;;;;;;;2.25;1.08;;;21.20;52.10;;;;;;5091237;28;20030;-67
2020/12/25 00:15:55;;;;;;;1.70;1.00;;;21.30;52.20;;;;;;5075251;28;20028;-68
2020/12/25 00:18:20;;;;;;;1.33;0.90;;;21.30;52.20;;;;;;5082690;28;20041;-68
2020/12/25 00:20:50;;;;;;;1.55;0.95;;;21.30;52.20;;;;;;5088172;28;20032;-68
2020/12/25 00:23:16;;;;;;;2.15;0.95;;;21.20;52.20;;;;;;5071136;28;20062;-66
2020/12/25 00:25:42;;;;;;;2.45;1.05;;;21.30;52.20;;;;;;5089239;28;20441;-69
2020/12/25 00:28:07;;;;;;;1.70;0.90;;;21.20;52.20;;;;;;5069794;28;20396;-66
2020/12/25 00:30:33;;;;;;;1.27;0.70;;;21.20;52.20;;;;;;5066802;28;20123;-68
2020/12/25 00:32:59;;;;;;;1.35;0.70;;;21.20;52.20;;;;;;5078594;28;20443;-66
2020/12/25 00:35:24;;;;;;;1.65;0.93;;;21.20;52.30;;;;;;5087026;28;20036;-67
2020/12/25 00:37:50;;;;;;;1.85;0.82;;;21.20;52.20;;;;;;5087826;28;20028;-66
2020/12/25 00:40:15;;;;;;;1.58;0.90;;;21.20;52.30;;;;;;5066792;28;20024;-66
2020/12/25 00:42:41;;;;;;;1.80;0.98;;;21.20;52.30;;;;;;5085091;28;20032;-66
2020/12/25 00:45:07;;;;;;;1.33;0.90;;;21.20;52.30;;;;;;5086836;28;20043;-67
2020/12/25 00:47:32;;;;;;;1.90;0.90;;;21.20;52.30;;;;;;5085696;28;20112;-69
2020/12/25 00:49:58;;;;;;;2.05;0.90;;;21.20;52.20;;;;;;5083428;28;20036;-68
2020/12/25 00:52:24;;;;;;;1.38;0.80;;;21.20;52.30;;;;;;5086798;28;20092;-66
2020/12/25 00:54:50;;;;;;;1.50;0.80;;;21.20;52.30;;;;;;5070143;28;20051;-66
2020/12/25 00:57:16;;;;;;;1.30;0.90;;;21.20;52.40;;;;;;5068084;28;20047;-67
2020/12/25 00:59:42;;;;;;;2.90;0.90;;;21.20;52.90;;;;;;5078114;28;20058;-67
2020/12/25 01:02:08;;;;;;;1.45;0.80;;;21.20;52.40;;;;;;5085534;28;20047;-69
2020/12/25 01:04:33;;;;;;;1.70;0.90;;;21.20;52.40;;;;;;5085984;28;20111;-70
2020/12/25 01:06:59;;;;;;;2.20;0.90;;;21.20;52.40;;;;;;5088308;28;20035;-67
2020/12/25 01:09:24;;;;;;;1.70;0.80;;;21.20;52.40;;;;;;5089909;28;20604;-67
2020/12/25 01:11:50;;;;;;;1.77;0.80;;;21.20;52.40;;;;;;5088817;28;20024;-66
2020/12/25 01:14:16;;;;;;;1.40;0.80;;;21.20;52.50;;;;;;5101250;28;20466;-67
2020/12/25 01:16:42;;;;;;;1.65;0.80;;;21.10;52.40;;;;;;5087352;28;20107;-66
2020/12/25 01:19:07;;;;;;;1.90;0.82;;;21.10;52.40;;;;;;5092257;28;20405;-67
2020/12/25 01:21:33;;;;;;;1.33;0.80;;;21.10;52.40;;;;;;5088372;28;20039;-69
2020/12/25 01:23:58;;;;;;;1.77;0.82;;;21.20;52.40;;;;;;5096176;28;20032;-67
2020/12/25 01:26:24;;;;;;;1.77;0.90;;;21.10;52.50;;;;;;5090945;28;20414;-68
2020/12/25 01:28:50;;;;;;;1.10;0.70;;;21.10;52.40;;;;;;5074899;28;20082;-67
2020/12/25 01:31:19;;;;;;;1.67;0.90;;;21.10;52.50;;;;;;5094300;28;20034;-69
2020/12/25 01:33:45;;;;;;;2.10;0.90;;;21.10;52.50;;;;;;5098040;28;20031;-67
2020/12/25 01:36:11;;;;;;;1.40;0.75;;;21.10;52.50;;;;;;5069945;28;20085;-67
2020/12/25 01:38:36;;;;;;;1.70;0.80;;;21.10;52.50;;;;;;5090513;28;20024;-67
2020/12/25 01:41:02;;;;;;;1.67;0.80;;;21.10;52.40;;;;;;5089871;28;20035;-69
2020/12/25 01:43:27;;;;;;;1.73;0.90;;;21.10;52.40;;;;;;5068684;28;20036;-67
2020/12/25 01:45:53;;;;;;;1.00;0.68;;;21.10;52.50;;;;;;5088329;28;20031;-68
2020/12/25 01:48:19;;;;;;;1.77;0.90;;;21.10;52.50;;;;;;5089425;28;20118;-70
2020/12/25 01:50:45;;;;;;;1.45;0.80;;;21.10;52.50;;;;;;5087174;28;20028;-66
2020/12/25 01:53:11;;;;;;;1.15;0.70;;;21.10;52.50;;;;;;5086999;28;20039;-67
2020/12/25 01:55:38;;;;;;;1.40;0.80;;;21.10;52.50;;;;;;5087876;28;20514;-66
2020/12/25 01:58:05;;;;;;;1.67;1.00;;;21.10;52.50;;;;;;5069033;28;20021;-68
2020/12/25 02:00:32;;;;;;;1.60;0.90;;;21.10;52.50;;;;;;5065897;28;20036;-67
2020/12/25 02:02:58;;;;;;;1.52;0.75;;;21.10;52.60;;;;;;5085186;28;20103;-67
2020/12/25 02:05:24;;;;;;;1.25;0.70;;;21.10;52.60;;;;;;5089531;28;20026;-66
2020/12/25 02:07:50;;;;;;;1.77;0.77;;;21.10;52.50;;;;;;5087682;28;20028;-66
2020/12/25 02:10:16;;;;;;;1.40;0.80;;;21.10;52.60;;;;;;5087887;28;20133;-68
2020/12/25 02:12:42;;;;;;;2.00;0.73;;;21.10;52.60;;;;;;5082330;28;20038;-67
2020/12/25 02:15:08;;;;;;;1.80;0.90;;;21.10;52.60;;;;;;5065629;28;20111;-66
2020/12/25 02:17:34;;;;;;;1.20;0.70;;;21.00;52.60;;;;;;5086498;28;20043;-66
2020/12/25 02:20:03;;;;;;;1.88;0.75;;;21.00;52.50;;;;;;5086990;28;20032;-66
2020/12/25 02:22:29;;;;;;;0.90;0.70;;;21.00;52.50;;;;;;5086682;28;20020;-66
2020/12/25 02:24:55;;;;;;;1.42;0.90;;;21.00;52.60;;;;;;5068268;28;20306;-67
2020/12/25 02:27:21;;;;;;;1.77;0.80;;;21.10;52.60;;;;;;5087031;28;20067;-67
2020/12/25 02:29:46;;;;;;;1.38;0.80;;;21.00;52.60;;;;;;5074261;28;20035;-67
2020/12/25 02:32:12;;;;;;;1.00;0.70;;;21.00;52.60;;;;;;5092028;28;20028;-67
2020/12/25 02:34:38;;;;;;;2.00;0.70;;;21.00;52.60;;;;;;5085026;28;20419;-67
2020/12/25 02:37:03;;;;;;;1.00;0.60;;;21.10;52.60;;;;;;5067441;28;20028;-66
2020/12/25 02:39:29;;;;;;;1.02;0.70;;;21.00;52.60;;;;;;5087033;28;20559;-66
2020/12/25 02:41:54;;;;;;;1.40;0.80;;;21.00;52.60;;;;;;5090535;28;20043;-66
2020/12/25 02:44:20;;;;;;;1.48;0.80;;;21.00;53.10;;;;;;5087349;28;20042;-68
2020/12/25 02:46:47;;;;;;;1.15;0.70;;;21.00;52.60;;;;;;5089125;28;20105;-68
2020/12/25 02:49:12;;;;;;;1.20;0.70;;;21.00;52.70;;;;;;5089597;28;20554;-67
2020/12/25 02:51:38;;;;;;;0.85;0.65;;;21.00;52.70;;;;;;5089804;28;20028;-68
2020/12/25 02:54:03;;;;;;;1.08;0.77;;;21.00;52.70;;;;;;5087916;28;20454;-66
2020/12/25 02:56:29;;;;;;;1.23;0.70;;;21.00;52.70;;;;;;5089813;28;20028;-67
2020/12/25 02:58:54;;;;;;;1.20;0.70;;;20.90;52.60;;;;;;5087057;28;20040;-67
2020/12/25 03:01:20;;;;;;;1.13;0.70;;;21.00;52.70;;;;;;5089459;28;20036;-68
2020/12/25 03:03:46;;;;;;;1.35;0.70;;;21.00;52.70;;;;;;5074630;28;20028;-68
2020/12/25 03:06:11;;;;;;;0.95;0.60;;;21.00;52.70;;;;;;5089582;28;20059;-67
2020/12/25 03:08:37;;;;;;;1.00;0.60;;;21.00;52.70;;;;;;5091069;28;20063;-67
2020/12/25 03:11:04;;;;;;;1.52;0.80;;;21.00;52.70;;;;;;5072863;28;20123;-67
2020/12/25 03:13:30;;;;;;;0.95;0.70;;;20.90;52.60;;;;;;5076600;28;20399;-67
2020/12/25 03:15:56;;;;;;;0.75;0.60;;;20.90;52.60;;;;;;5071256;28;20035;-67
2020/12/25 03:18:21;;;;;;;1.17;0.75;;;20.90;52.60;;;;;;5090680;28;20145;-67
2020/12/25 03:20:47;;;;;;;1.10;0.60;;;21.00;52.70;;;;;;5093917;28;20377;-68
2020/12/25 03:23:13;;;;;;;1.35;0.70;;;21.00;52.70;;;;;;5090557;28;20096;-67
2020/12/25 03:25:39;;;;;;;0.70;0.60;;;20.90;52.60;;;;;;5088896;28;20495;-67
2020/12/25 03:28:04;;;;;;;1.85;0.95;;;20.90;52.60;;;;;;5089709;28;20805;-67
2020/12/25 03:30:31;;;;;;;1.30;0.70;;;20.90;52.60;;;;;;5086793;28;20059;-68
2020/12/25 03:32:57;;;;;;;1.13;0.70;;;20.90;52.60;;;;;;5089481;28;20024;-68
2020/12/25 03:35:23;;;;;;;1.00;0.60;;;20.90;52.60;;;;;;5095989;28;20028;-68
2020/12/25 03:37:49;;;;;;;0.80;0.60;;;20.90;52.60;;;;;;5069524;28;20111;-67
2020/12/25 03:40:15;;;;;;;1.00;0.63;;;20.90;52.70;;;;;;5092740;28;20788;-68
2020/12/25 03:42:40;;;;;;;1.15;0.70;;;20.90;52.60;;;;;;5090275;28;20038;-69
2020/12/25 03:45:06;;;;;;;0.45;0.45;;;20.90;52.60;;;;;;5090151;28;20028;-69
2020/12/25 03:47:32;;;;;;;0.88;0.70;;;20.90;52.60;;;;;;5071593;28;20028;-67
2020/12/25 03:49:57;;;;;;;1.27;0.60;;;20.90;52.60;;;;;;5086731;28;20040;-67
2020/12/25 03:52:23;;;;;;;0.80;0.60;;;20.90;52.60;;;;;;5092546;28;20114;-68
2020/12/25 03:54:49;;;;;;;1.13;0.60;;;20.90;52.60;;;;;;5074750;28;20040;-66
2020/12/25 03:57:15;;;;;;;1.10;0.70;;;20.90;52.60;;;;;;5070973;28;20119;-67
2020/12/25 03:59:40;;;;;;;0.95;0.68;;;20.90;52.70;;;;;;5081901;28;20491;-68
2020/12/25 04:02:06;;;;;;;1.17;0.68;;;20.90;52.60;;;;;;5092580;28;20099;-68
2020/12/25 04:04:32;;;;;;;1.00;0.65;;;20.80;52.60;;;;;;5093094;28;20036;-68
2020/12/25 04:06:57;;;;;;;0.98;0.60;;;20.90;52.70;;;;;;5089390;28;20069;-66
2020/12/25 04:09:23;;;;;;;0.90;0.63;;;20.80;52.60;;;;;;5089785;28;20055;-66
2020/12/25 04:11:49;;;;;;;0.93;0.60;;;20.80;52.60;;;;;;5090292;28;20592;-67
2020/12/25 04:14:18;;;;;;;0.90;0.65;;;20.90;52.70;;;;;;5094962;28;20020;-67
2020/12/25 04:16:44;;;;;;;0.93;0.60;;;20.90;52.70;;;;;;5069021;28;20032;-67
2020/12/25 04:19:10;;;;;;;0.85;0.50;;;20.80;52.60;;;;;;5089651;28;20043;-67
2020/12/25 04:21:40;;;;;;;1.20;0.77;;;20.80;52.60;;;;;;5089919;28;20032;-67
2020/12/25 04:24:06;;;;;;;0.90;0.60;;;20.80;53.10;;;;;;5073291;28;20120;-66
2020/12/25 04:26:32;;;;;;;0.70;0.60;;;20.80;52.60;;;;;;5069813;28;20036;-70
2020/12/25 04:28:57;;;;;;;0.98;0.60;;;20.80;52.60;;;;;;5070384;28;20096;-67
2020/12/25 04:31:24;;;;;;;1.42;0.50;;;20.80;52.60;;;;;;5094233;28;20024;-67
2020/12/25 04:33:51;;;;;;;0.98;0.60;;;20.80;52.60;;;;;;5086040;28;20028;-67
2020/12/25 04:36:17;;;;;;;0.80;0.57;;;20.80;52.60;;;;;;5088827;28;20020;-67
2020/12/25 04:38:42;;;;;;;1.50;0.63;;;20.80;52.60;;;;;;5089794;28;20051;-66
2020/12/25 04:41:08;;;;;;;1.35;0.75;;;20.80;52.60;;;;;;5089515;28;20047;-69
2020/12/25 04:43:36;;;;;;;1.02;0.63;;;20.80;52.60;;;;;;5092608;28;20102;-67
2020/12/25 04:46:02;;;;;;;0.88;0.60;;;20.80;52.70;;;;;;5101248;28;20422;-69
2020/12/25 04:48:28;;;;;;;0.63;0.43;;;20.80;52.60;;;;;;5088726;28;20039;-66
2020/12/25 04:50:53;;;;;;;0.75;0.52;;;20.80;52.70;;;;;;5088581;28;20024;-70
2020/12/25 04:53:20;;;;;;;0.50;0.50;;;20.80;52.70;;;;;;5068639;28;20104;-69
2020/12/25 04:55:46;;;;;;;0.73;0.50;;;20.80;52.70;;;;;;5089319;28;20499;-67
2020/12/25 04:58:11;;;;;;;0.52;0.52;;;20.80;52.70;;;;;;5087293;28;20095;-67
2020/12/25 05:00:37;;;;;;;0.65;0.50;;;20.80;52.70;;;;;;5090428;28;20039;-66
2020/12/25 05:03:06;;;;;;;0.77;0.60;;;20.70;52.60;;;;;;5088749;28;20102;-67
2020/12/25 05:05:32;;;;;;;0.55;0.45;;;20.70;52.60;;;;;;5088095;28;20099;-66
2020/12/25 05:07:59;;;;;;;1.30;0.63;;;20.80;52.70;;;;;;5087528;28;20126;-67
2020/12/25 05:10:26;;;;;;;0.70;0.50;;;20.70;52.60;;;;;;5087909;28;20028;-68
2020/12/25 05:12:52;;;;;;;1.27;0.60;;;20.70;52.60;;;;;;5072157;28;20031;-66
2020/12/25 05:15:18;;;;;;;0.85;0.60;;;20.70;52.60;;;;;;5094905;28;20055;-67
2020/12/25 05:17:44;;;;;;;0.80;0.50;;;20.70;52.60;;;;;;5087059;28;20099;-66
2020/12/25 05:20:10;;;;;;;0.93;0.60;;;20.70;52.60;;;;;;5086115;28;20493;-67
2020/12/25 05:22:36;;;;;;;0.73;0.50;;;20.70;52.60;;;;;;5069802;28;20039;-66
2020/12/25 05:25:07;;;;;;;0.73;0.50;;;20.70;52.60;;;;;;5087615;28;20028;-66
2020/12/25 05:27:33;;;;;;;0.63;0.50;;;20.70;52.70;;;;;;5069465;28;20110;-66
2020/12/25 05:30:04;;;;;;;0.50;0.50;;;20.70;52.60;;;;;;5087747;28;20136;-66
2020/12/25 05:32:32;;;;;;;1.40;0.60;;;20.70;52.70;;;;;;5089142;28;20099;-67
2020/12/25 05:34:59;;;;;;;1.25;0.50;;;20.70;52.60;;;;;;5083936;28;20063;-66
2020/12/25 05:37:36;;;;;;;0.93;0.50;;;20.70;52.60;;;;;;5086445;28;20024;-67
2020/12/25 05:40:05;;;;;;;0.95;0.50;;;20.70;52.70;;;;;;5087554;28;20096;-67
2020/12/25 05:42:44;;;;;;;0.57;0.52;;;20.70;52.60;;;;;;5073545;28;20035;-68
2020/12/25 05:45:09;;;;;;;1.25;0.50;;;20.70;52.70;;;;;;5088556;28;20069;-67
2020/12/25 05:47:35;;;;;;;0.60;0.50;;;20.70;52.70;;;;;;5086684;28;20102;-67
2020/12/25 05:50:00;;;;;;;0.90;0.60;;;20.70;52.60;;;;;;5074024;28;20705;-66
2020/12/25 05:52:26;;;;;;;1.05;0.50;;;20.60;52.60;;;;;;5087513;28;20028;-69
2020/12/25 05:54:55;;;;;;;0.57;0.50;;;20.60;52.60;;;;;;5067142;28;20446;-67
2020/12/25 05:57:22;;;;;;;0.60;0.50;;;20.70;52.60;;;;;;5071997;28;20024;-66
2020/12/25 05:59:49;;;;;;;0.50;0.50;;;20.60;52.60;;;;;;5088239;28;20040;-66
2020/12/25 06:02:16;;;;;;;0.63;0.50;;;20.60;52.60;;;;;;5090207;28;20482;-67
2020/12/25 06:04:42;;;;;;;0.45;0.40;;;20.60;52.60;;;;;;5072696;28;20837;-66
2020/12/25 06:07:10;;;;;;;0.55;0.43;;;20.60;52.60;;;;;;5087874;28;20028;-68
2020/12/25 06:09:44;;;;;;;0.50;0.50;;;20.60;52.60;;;;;;5087473;28;20032;-66
2020/12/25 06:12:14;;;;;;;0.52;0.40;;;20.60;52.60;;;;;;5089884;28;20016;-67
2020/12/25 06:14:39;;;;;;;0.70;0.50;;;20.60;52.60;;;;;;5094012;28;20395;-67
2020/12/25 06:17:17;;;;;;;0.40;0.32;;;20.60;52.60;;;;;;5068237;28;20109;-67
2020/12/25 06:20:04;;;;;;;0.50;0.50;;;20.60;52.60;;;;;;5087624;28;20032;-66
2020/12/25 06:22:36;;;;;;;0.50;0.40;;;20.60;52.60;;;;;;5087642;28;20054;-67
2020/12/25 06:25:06;;;;;;;1.00;0.60;;;20.60;52.60;;;;;;5087623;28;20039;-67
2020/12/25 06:27:32;;;;;;;0.65;0.50;;;20.60;52.60;;;;;;5087278;28;20063;-67
2020/12/25 06:30:00;;;;;;;0.40;0.40;;;20.60;52.60;;;;;;5068164;28;20496;-66
2020/12/25 06:32:26;;;;;;;1.60;0.53;;;20.60;52.60;;;;;;5086585;28;20031;-66
2020/12/25 06:34:59;;;;;;;0.75;0.60;;;20.60;52.60;;;;;;5086192;28;20020;-67
2020/12/25 06:37:28;;;;;;;0.55;0.40;;;20.60;52.60;;;;;;5089733;28;20028;-67
2020/12/25 06:39:57;;;;;;;0.52;0.40;;;20.60;52.60;;;;;;5091763;28;20103;-66
2020/12/25 06:42:34;;;;;;;0.50;0.50;;;20.50;52.60;;;;;;5092187;28;20079;-67
2020/12/25 06:45:02;;;;;;;1.08;0.60;;;20.50;52.60;;;;;;5091443;28;20417;-69
2020/12/25 06:47:39;;;;;;;0.43;0.40;;;20.50;52.60;;;;;;5091371;28;20117;-66
2020/12/25 06:50:10;;;;;;;0.63;0.60;;;20.50;52.70;;;;;;5095978;28;20031;-67
2020/12/25 06:53:00;;;;;;;0.55;0.55;;;20.50;52.60;;;;;;5095008;28;20052;-67
2020/12/25 06:55:39;;;;;;;0.40;0.30;;;20.50;52.60;;;;;;5090075;28;20027;-68
2020/12/25 06:58:06;;;;;;;0.60;0.50;;;20.50;52.60;;;;;;5093364;28;20035;-67
2020/12/25 07:00:31;;;;;;;0.50;0.45;;;20.50;52.60;;;;;;5091104;28;20077;-67
2020/12/25 07:03:12;;;;;;;0.60;0.40;;;20.50;52.60;;;;;;5096061;28;20032;-66
2020/12/25 07:05:48;;;;;;;0.40;0.32;;;20.50;52.60;;;;;;5072630;28;20039;-67
2020/12/25 07:08:31;;;;;;;0.70;0.50;;;20.50;52.60;;;;;;5090044;28;20029;-66
2020/12/25 07:11:07;;;;;;;0.90;0.50;;;20.50;52.60;;;;;;5092009;28;20031;-67
2020/12/25 07:13:40;;;;;;;0.38;0.38;;;20.50;52.60;;;;;;5081782;28;20082;-67
2020/12/25 07:16:07;;;;;;;0.50;0.50;;;20.50;52.60;;;;;;5090507;28;20100;-66
2020/12/25 07:18:33;;;;;;;0.47;0.47;;;20.50;52.60;;;;;;5090057;28;20031;-66
2020/12/25 07:21:05;;;;;;;0.50;0.40;;;20.50;52.60;;;;;;5096698;28;20024;-67
2020/12/25 07:23:31;;;;;;;0.40;0.40;;;20.40;52.60;;;;;;5095861;28;20023;-68
2020/12/25 07:25:58;;;;;;;0.30;0.30;;;20.50;52.70;;;;;;5092330;28;20028;-69
2020/12/25 07:28:26;;;;;;;1.00;0.52;;;20.50;52.70;;;;;;5099086;28;20819;-66
2020/12/25 07:30:53;;;;;;;0.40;0.40;;;20.40;52.60;;;;;;5090372;28;20032;-69
2020/12/25 07:33:20;;;;;;;0.68;0.40;;;20.50;52.70;;;;;;5099201;28;20024;-68
2020/12/25 07:35:46;;;;;;;0.38;0.38;;;20.40;52.60;;;;;;5093748;28;20016;-68
2020/12/25 07:38:16;;;;;;;0.40;0.40;;;20.40;52.60;;;;;;5087309;28;20565;-66
2020/12/25 07:40:45;;;;;;;0.47;0.40;;;20.40;52.60;;;;;;5092572;28;20043;-68
2020/12/25 07:43:11;;;;;;;0.75;0.50;;;20.50;53.20;;;;;;5084954;28;20036;-67
2020/12/25 07:45:38;;;;;;;0.40;0.40;;;20.40;52.60;;;;;;5069829;28;20036;-67
2020/12/25 07:48:07;;;;;;;0.40;0.40;;;20.40;52.60;;;;;;5089435;28;20058;-67
2020/12/25 07:50:38;;;;;;;0.40;0.40;;;20.40;52.60;;;;;;5088796;28;20032;-67
2020/12/25 07:53:17;;;;;;;0.70;0.47;;;20.40;52.60;;;;;;5081951;28;20804;-65
2020/12/25 07:55:49;;;;;;;0.30;0.30;;;20.40;52.60;;;;;;5063667;28;20115;-66
2020/12/25 07:58:16;;;;;;;0.30;0.30;;;20.40;52.60;;;;;;5081023;28;20032;-66
2020/12/25 08:00:43;;;;;;;0.70;0.60;;;20.40;52.60;;;;;;5083639;28;20358;-67
2020/12/25 08:03:09;;;;;;;0.85;0.40;;;20.40;52.70;;;;;;5066627;28;20059;-69
2020/12/25 08:05:35;;;;;;;0.57;0.40;;;20.40;52.60;;;;;;5087472;28;20039;-67
2020/12/25 08:08:02;;;;;;;0.30;0.20;;;20.40;52.60;;;;;;5089836;28;20059;-66
2020/12/25 08:10:28;;;;;;;0.50;0.50;;;20.40;52.60;;;;;;5089088;28;20066;-66
2020/12/25 08:12:58;;;;;;;0.52;0.40;;;20.40;52.60;;;;;;5082877;28;20036;-68
2020/12/25 08:15:25;;;;;;;0.88;0.60;;;20.40;52.60;;;;;;5063318;28;20020;-68
2020/12/25 08:17:57;;;;;;;0.47;0.40;;;20.40;52.70;;;;;;5088109;28;20032;-68
2020/12/25 08:20:23;;;;;;;0.88;0.52;;;20.40;52.60;;;;;;5089078;28;20059;-67
2020/12/25 08:22:50;;;;;;;0.43;0.40;;;20.40;52.60;;;;;;5082434;28;20040;-67
2020/12/25 08:25:17;;;;;;;0.38;0.35;;;20.40;52.60;;;;;;5089529;28;20031;-65
2020/12/25 08:27:43;;;;;;;0.30;0.30;;;20.40;52.70;;;;;;5069081;28;20131;-65
2020/12/25 08:30:08;;;;;;;0.65;0.40;;;20.40;52.60;;;;;;5084725;28;20135;-66
2020/12/25 08:32:34;;;;;;;0.30;0.30;;;20.40;52.60;;;;;;5076934;28;20799;-67
2020/12/25 08:35:14;;;;;;;0.45;0.40;;;20.40;52.70;;;;;;5086694;28;20459;-67
2020/12/25 08:37:50;;;;;;;;;;;20.30;52.60;;;;;;5082014;28;20056;-67
2020/12/25 08:40:16;;;;;;;0.43;0.40;;;20.30;52.60;;;;;;5089595;28;20330;-65
2020/12/25 08:42:42;;;;;;;0.57;0.45;;;20.40;52.70;;;;;;5069080;28;20082;-66
2020/12/25 08:45:08;;;;;;;0.30;0.30;;;20.30;52.60;;;;;;5067375;28;20424;-67
2020/12/25 08:47:34;;;;;;;1.30;0.40;;;20.30;52.60;;;;;;5088099;28;20032;-68
2020/12/25 08:50:00;;;;;;;0.38;0.38;;;20.30;52.60;;;;;;5087546;28;20085;-67
2020/12/25 08:52:26;;;;;;;0.47;0.40;;;20.30;52.60;;;;;;5093954;28;20024;-67
2020/12/25 08:54:59;;;;;;;0.55;0.32;;;20.30;52.60;;;;;;5097121;28;20024;-68
2020/12/25 08:57:25;;;;;;;0.47;0.47;;;20.30;52.60;;;;;;5081224;28;20480;-68
2020/12/25 09:00:09;;;;;;;0.32;0.30;;;20.40;52.60;;;;;;5066627;28;20048;-67
2020/12/25 09:02:35;;;;;;;0.47;0.40;;;20.40;52.60;;;;;;5089619;28;20081;-69
2020/12/25 09:05:01;;;;;;;0.30;0.30;;;20.30;52.60;;;;;;5086728;28;20510;-66
2020/12/25 09:07:27;;;;;;;0.57;0.40;;;20.30;52.60;;;;;;5086747;28;20028;-69
2020/12/25 09:09:52;;;;;;;0.60;0.40;;;20.30;52.60;;;;;;5086100;28;20060;-69
2020/12/25 09:12:18;;;;;;;0.35;0.35;;;20.30;52.60;;;;;;5068148;28;20028;-68
2020/12/25 09:14:44;;;;;;;0.40;0.40;;;20.30;52.60;;;;;;5089895;28;20114;-68
2020/12/25 09:17:09;;;;;;;0.40;0.40;;;20.30;52.60;;;;;;5081732;28;20126;-68
2020/12/25 09:19:35;;;;;;;0.60;0.40;;;20.40;52.60;;;;;;5089545;28;20043;-70
2020/12/25 09:22:01;;;;;;;0.40;0.40;;;20.30;52.60;;;;;;5072257;28;20039;-68
2020/12/25 09:24:26;;;;;;;0.52;0.40;;;20.30;52.60;;;;;;5088024;28;20626;-69
2020/12/25 09:26:52;;;;;;;0.40;0.30;;;20.30;52.60;;;;;;5091023;28;20024;-69
2020/12/25 09:29:18;;;;;;;0.47;0.40;;;20.30;52.60;;;;;;5067284;28;20032;-69
2020/12/25 09:31:49;;;;;;;0.75;0.43;;;20.30;53.10;;;;;;5096899;28;20023;-68
2020/12/25 09:34:15;;;;;;;0.45;0.40;;;20.30;52.60;;;;;;5084734;28;20537;-68
2020/12/25 09:36:43;;;;;;;0.40;0.40;;;20.30;52.60;;;;;;5086457;28;20064;-69
2020/12/25 09:39:09;;;;;;;0.38;0.35;;;20.30;52.60;;;;;;5085606;28;20526;-71
2020/12/25 09:41:34;;;;;;;0.65;0.47;;;20.30;52.60;;;;;;5094810;28;20107;-69
2020/12/25 09:44:00;;;;;;;0.50;0.40;;;20.30;52.60;;;;;;5075410;28;20102;-69
2020/12/25 09:46:25;;;;;;;0.85;0.40;;;20.30;52.70;;;;;;5085032;28;20372;-68
2020/12/25 09:48:51;;;;;;;0.43;0.40;;;20.30;52.70;;;;;;5087693;28;20071;-68
2020/12/25 09:51:23;;;;;;;0.63;0.63;;;20.30;52.70;;;;;;5067808;28;20483;-68
2020/12/25 09:53:49;;;;;;;0.30;0.30;;;20.30;52.70;;;;;;5070671;28;20028;-68
2020/12/25 09:56:17;;;;;;;0.63;0.35;;;20.30;52.70;;;;;;5066918;28;20028;-68
2020/12/25 09:58:43;;;;;;;0.52;0.40;;;20.30;52.70;;;;;;5086038;28;20035;-66
2020/12/25 10:01:08;;;;;;;0.68;0.60;;;20.30;52.80;;;;;;5095017;28;20403;-67
2020/12/25 10:03:35;;;;;;;0.30;0.30;;;20.30;52.70;;;;;;5085593;28;20031;-68
2020/12/25 10:06:01;;;;;;;0.45;0.30;;;20.30;52.80;;;;;;5070771;28;20031;-68
2020/12/25 10:08:27;;;;;;;0.60;0.40;;;20.30;52.80;;;;;;5090689;28;20030;-68
2020/12/25 10:10:52;;;;;;;0.68;0.40;;;20.30;52.80;;;;;;5085367;28;20703;-68
2020/12/25 10:13:18;;;;;;;0.70;0.47;;;20.30;52.80;;;;;;5084980;28;20067;-69
2020/12/25 10:15:43;;;;;;;0.73;0.40;;;20.30;52.80;;;;;;5083012;28;20027;-68
2020/12/25 10:18:09;;;;;;;0.63;0.47;;;20.30;52.80;;;;;;5086189;28;20053;-68
2020/12/25 10:20:35;;;;;;;0.68;0.50;;;20.30;52.80;;;;;;5089313;28;20035;-67
2020/12/25 10:23:00;;;;;;;0.63;0.50;;;20.30;52.80;;;;;;5090138;28;20040;-67
2020/12/25 10:25:26;;;;;;;0.40;0.40;;;20.30;52.80;;;;;;5066956;28;20024;-67
2020/12/25 10:27:51;;;;;;;0.57;0.43;;;20.20;52.70;;;;;;5086306;28;20047;-66
2020/12/25 10:30:17;;;;;;;0.80;0.43;;;20.30;52.80;;;;;;5086154;28;20053;-66
2020/12/25 10:32:43;;;;;;;0.57;0.40;;;20.20;52.70;;;;;;5089846;28;20024;-67
2020/12/25 10:35:08;;;;;;;0.60;0.50;;;20.20;52.70;;;;;;5091074;28;20372;-67
2020/12/25 10:37:38;;;;;;;1.77;0.50;;;20.30;52.80;;;;;;5070557;28;20032;-67
2020/12/25 10:40:04;;;;;;;0.82;0.38;;;20.20;52.80;;;;;;5090225;28;20097;-66
2020/12/25 10:42:30;;;;;;;0.70;0.50;;;20.20;52.80;;;;;;5087761;28;20117;-67
2020/12/25 10:44:55;;;;;;;0.40;0.40;;;20.20;52.80;;;;;;5068639;28;20070;-67
2020/12/25 10:47:21;;;;;;;0.85;0.50;;;20.20;52.70;;;;;;5085992;28;20040;-66
2020/12/25 10:49:47;;;;;;;0.63;0.43;;;20.20;52.80;;;;;;5086000;28;20591;-67
2020/12/25 10:52:12;;;;;;;0.40;0.40;;;20.20;52.80;;;;;;5086941;28;20020;-66
2020/12/25 10:54:38;;;;;;;0.60;0.55;;;20.20;52.80;;;;;;5087391;28;20154;-66
2020/12/25 10:57:03;;;;;;;0.80;0.60;;;20.20;52.80;;;;;;5068140;28;20510;-67
2020/12/25 10:59:29;;;;;;;0.70;0.50;;;20.20;52.80;;;;;;5085552;28;20121;-67
2020/12/25 11:01:54;;;;;;;0.40;0.40;;;20.20;52.70;;;;;;5086907;28;20028;-67
2020/12/25 11:04:20;;;;;;;0.55;0.50;;;20.20;52.80;;;;;;5070977;28;20146;-67
2020/12/25 11:06:46;;;;;;;1.02;0.63;;;20.20;52.80;;;;;;5086793;28;20103;-67
2020/12/25 11:09:11;;;;;;;0.70;0.50;;;20.20;52.80;;;;;;5092001;28;20034;-66
2020/12/25 11:11:39;;;;;;;1.13;0.60;;;20.20;52.80;;;;;;5088410;28;20083;-67
2020/12/25 11:14:06;;;;;;;0.98;0.60;;;20.20;52.80;;;;;;5068738;28;20107;-68
2020/12/25 11:16:36;;;;;;;0.77;0.60;;;20.20;52.80;;;;;;5067628;28;20028;-68
2020/12/25 11:19:13;;;;;;;0.85;0.60;;;20.20;52.80;;;;;;5068186;28;20031;-67
2020/12/25 11:21:39;;;;;;;1.08;0.70;;;20.20;52.80;;;;;;5088669;28;20492;-69
2020/12/25 11:24:05;;;;;;;0.50;0.50;;;20.20;52.80;;;;;;5090129;28;20036;-68
2020/12/25 11:26:35;;;;;;;1.58;0.80;;;20.20;52.80;;;;;;5091902;28;20024;-66
2020/12/25 11:29:03;;;;;;;1.52;0.68;;;20.20;52.80;;;;;;5091838;28;20162;-67
2020/12/25 11:31:30;;;;;;;1.17;0.70;;;20.20;52.80;;;;;;5091265;28;20048;-67
2020/12/25 11:33:56;;;;;;;0.65;0.60;;;20.20;52.80;;;;;;5073689;28;20119;-66
2020/12/25 11:36:23;;;;;;;0.93;0.70;;;20.20;52.80;;;;;;5090596;28;20453;-67
2020/12/25 11:38:49;;;;;;;0.82;0.60;;;20.20;53.30;;;;;;5067241;28;20671;-66
2020/12/25 11:41:18;;;;;;;1.33;0.63;;;20.20;52.80;;;;;;5091459;28;20030;-68
2020/12/25 11:43:44;;;;;;;1.27;0.63;;;20.20;52.80;;;;;;5087327;28;20044;-66
2020/12/25 11:46:10;;;;;;;0.90;0.60;;;20.20;52.90;;;;;;5072122;28;20030;-68
2020/12/25 11:48:38;;;;;;;1.15;0.60;;;20.10;52.80;;;;;;5092556;28;20023;-66
2020/12/25 11:51:08;;;;;;;1.02;0.70;;;20.20;52.80;;;;;;5068627;28;20025;-67
2020/12/25 11:53:35;;;;;;;;;;;20.10;52.80;;;;;;5096498;28;20812;-66
2020/12/25 11:56:00;;;;;;;1.38;0.80;;;20.20;52.90;;;;;;5086224;28;19908;-66
2020/12/25 11:58:26;;;;;;;1.90;0.70;;;20.20;52.80;;;;;;5071019;28;20027;-67
2020/12/25 12:00:52;;;;;;;1.10;0.63;;;20.10;52.80;;;;;;5071007;28;20024;-69
2020/12/25 12:03:17;;;;;;;1.00;0.80;;;20.20;52.80;;;;;;5071784;28;20028;-67
2020/12/25 12:05:44;;;;;;;1.60;0.80;;;20.10;52.80;;;;;;5085790;28;20402;-66
2020/12/25 12:08:11;;;;;;;0.98;0.70;;;20.10;52.80;;;;;;5071156;28;20032;-67
2020/12/25 12:10:37;;;;;;;1.40;0.70;;;20.10;52.80;;;;;;5089269;28;20406;-66
2020/12/25 12:13:04;;;;;;;1.55;0.70;;;20.10;53.00;;;;;;5083854;28;20024;-68
2020/12/25 12:15:34;;;;;;;1.15;0.70;;;20.20;52.90;;;;;;5091349;28;20374;-67
2020/12/25 12:17:59;;;;;;;1.23;0.70;;;20.10;52.80;;;;;;5074522;28;20031;-68
2020/12/25 12:20:25;;;;;;;1.20;0.70;;;20.10;52.80;;;;;;5089583;28;20191;-67
2020/12/25 12:22:50;;;;;;;1.50;0.80;;;20.10;52.80;;;;;;5071803;28;20039;-67
2020/12/25 12:25:16;;;;;;;1.50;0.70;;;20.10;52.80;;;;;;5084993;28;20116;-67
2020/12/25 12:27:42;;;;;;;1.13;0.80;;;20.10;52.90;;;;;;5087592;28;20100;-67
2020/12/25 12:30:08;;;;;;;1.58;1.00;;;20.10;52.90;;;;;;5071210;28;20118;-67
2020/12/25 12:32:34;;;;;;;1.40;0.90;;;20.10;52.90;;;;;;5075527;28;20115;-67
2020/12/25 12:35:00;;;;;;;1.65;0.75;;;20.10;52.90;;;;;;5092500;28;20047;-67
2020/12/25 12:37:26;;;;;;;1.27;0.80;;;20.10;52.90;;;;;;5068978;28;20457;-67
2020/12/25 12:39:51;;;;;;;1.17;0.73;;;20.10;52.90;;;;;;5080306;28;20047;-66
2020/12/25 12:42:17;;;;;;;1.55;0.80;;;20.10;52.90;;;;;;5086751;28;20028;-66
2020/12/25 12:44:42;;;;;;;2.35;0.77;;;20.10;52.90;;;;;;5093054;28;20023;-68
2020/12/25 12:47:08;;;;;;;0.90;0.63;;;20.10;52.90;;;;;;5085087;28;20114;-67